createdAt,value
2017-12-14T00:01:29.886Z,1.80
2017-12-14T00:03:58.551Z,1.33
2017-12-14T00:06:27.269Z,1.20
2017-12-14T00:08:55.925Z,1.07
2017-12-14T00:11:24.582Z,0.87
2017-12-14T00:13:53.300Z,1.03
2017-12-14T00:16:22.003Z,1.07
2017-12-14T00:18:50.644Z,0.93
2017-12-14T00:21:19.307Z,1.13
2017-12-14T00:23:47.997Z,1.10
2017-12-14T00:26:16.641Z,1.13
2017-12-14T00:28:45.336Z,1.00
2017-12-14T00:31:17.820Z,1.00
2017-12-14T00:33:46.524Z,0.90
2017-12-14T00:36:19.162Z,0.80
2017-12-14T00:38:47.847Z,0.80
2017-12-14T00:41:16.559Z,1.10
2017-12-14T00:43:47.118Z,0.80
2017-12-14T00:46:15.498Z,0.77
2017-12-14T00:48:44.203Z,0.70
2017-12-14T00:51:12.564Z,1.00
2017-12-14T00:53:41.267Z,0.80
2017-12-14T00:56:14.049Z,0.73
2017-12-14T00:58:42.783Z,0.80
2017-12-14T01:01:11.427Z,0.70
2017-12-14T01:03:40.114Z,0.80
2017-12-14T01:06:20.999Z,0.60
2017-12-14T01:09:02.392Z,0.60
2017-12-14T01:11:44.356Z,0.63
2017-12-14T01:14:26.623Z,0.70
2017-12-14T01:17:03.296Z,0.60
2017-12-14T01:19:41.161Z,0.73
2017-12-14T01:25:10.787Z,0.60
2017-12-14T01:27:47.054Z,0.90
2017-12-14T01:30:24.742Z,0.63
2017-12-14T01:33:02.224Z,0.60
2017-12-14T01:38:22.234Z,0.70
2017-12-14T01:40:55.793Z,0.60
2017-12-14T01:43:27.576Z,0.50
2017-12-14T01:46:06.556Z,0.90
2017-12-14T01:48:40.187Z,0.70
2017-12-14T01:51:18.594Z,0.63
2017-12-14T01:53:50.959Z,0.50
2017-12-14T01:56:29.397Z,0.40
2017-12-14T01:59:05.316Z,0.43
2017-12-14T02:01:40.825Z,0.70
2017-12-14T02:04:11.080Z,0.40
2017-12-14T02:06:41.052Z,0.40
2017-12-14T02:09:12.504Z,0.40
2017-12-14T02:11:41.673Z,0.40
2017-12-14T02:14:10.844Z,0.50
2017-12-14T02:16:40.410Z,0.50
2017-12-14T02:19:09.067Z,0.40
2017-12-14T02:21:37.767Z,0.87
2017-12-14T02:24:06.460Z,0.50
2017-12-14T02:26:35.115Z,0.53
2017-12-14T02:29:03.749Z,0.50
2017-12-14T02:31:32.451Z,0.47
2017-12-14T02:34:01.135Z,0.60
2017-12-14T02:36:29.825Z,0.50
2017-12-14T02:38:58.540Z,0.67
2017-12-14T02:41:27.215Z,0.50
2017-12-14T02:43:55.895Z,0.70
2017-12-14T02:46:24.542Z,1.00
2017-12-14T02:48:53.225Z,1.50
2017-12-14T02:51:21.872Z,1.00
2017-12-14T02:53:50.573Z,1.00
2017-12-14T02:56:19.223Z,1.23
2017-12-14T02:58:47.925Z,1.30
2017-12-14T03:01:16.627Z,1.27
2017-12-14T03:03:45.330Z,1.20
2017-12-14T03:06:18.543Z,1.30
2017-12-14T03:08:47.218Z,0.93
2017-12-14T03:11:15.902Z,1.17
2017-12-14T03:13:44.661Z,1.33
2017-12-14T03:16:15.367Z,0.93
2017-12-14T03:18:44.092Z,1.43
2017-12-14T03:21:12.758Z,1.33
2017-12-14T03:23:41.458Z,1.50
2017-12-14T03:26:13.317Z,2.00
2017-12-14T03:28:41.955Z,1.30
2017-12-14T03:31:10.669Z,1.90
2017-12-14T03:33:39.328Z,1.63
2017-12-14T03:36:12.444Z,1.63
2017-12-14T03:38:41.136Z,1.73
2017-12-14T03:41:09.828Z,1.47
2017-12-14T03:43:38.519Z,1.40
2017-12-14T03:46:11.743Z,1.30
2017-12-14T03:48:40.166Z,1.67
2017-12-14T03:51:08.862Z,1.67
2017-12-14T03:53:37.593Z,1.57
2017-12-14T03:56:06.309Z,1.70
2017-12-14T03:58:34.993Z,2.00
2017-12-14T04:01:03.696Z,1.80
2017-12-14T04:03:32.412Z,1.90
2017-12-14T04:06:01.054Z,1.57
2017-12-14T04:08:29.748Z,1.73
2017-12-14T04:10:58.163Z,1.40
2017-12-14T04:13:26.547Z,1.30
2017-12-14T04:15:54.966Z,1.20
2017-12-14T04:18:23.636Z,1.50
2017-12-14T04:20:52.330Z,1.30
2017-12-14T04:23:21.063Z,1.50
2017-12-14T04:25:49.456Z,1.10
2017-12-14T04:28:17.927Z,1.00
2017-12-14T04:30:46.615Z,1.27
2017-12-14T04:33:15.387Z,0.90
2017-12-14T04:35:43.753Z,1.40
2017-12-14T04:38:12.116Z,1.63
2017-12-14T04:40:40.511Z,1.10
2017-12-14T04:43:08.935Z,1.50
2017-12-14T04:45:37.311Z,1.13
2017-12-14T04:48:06.099Z,1.67
2017-12-14T04:50:34.506Z,1.30
2017-12-14T04:53:03.236Z,1.67
2017-12-14T04:55:31.597Z,1.87
2017-12-14T04:58:01.118Z,2.30
2017-12-14T05:00:29.890Z,1.50
2017-12-14T05:02:58.244Z,2.23
2017-12-14T05:05:26.956Z,2.10
2017-12-14T05:07:55.371Z,1.50
2017-12-14T05:10:24.063Z,1.30
2017-12-14T05:12:54.231Z,1.70
2017-12-14T05:15:24.203Z,1.77
2017-12-14T05:17:56.625Z,1.53
2017-12-14T05:20:27.725Z,1.50
2017-12-14T05:22:58.131Z,1.70
2017-12-14T05:25:27.973Z,1.97
2017-12-14T05:27:56.730Z,1.90
2017-12-14T05:30:39.989Z,2.50
2017-12-14T05:33:25.553Z,2.63
2017-12-14T05:35:55.642Z,2.90
2017-12-14T05:38:24.406Z,2.60
2017-12-14T05:40:54.830Z,3.90
2017-12-14T05:43:24.485Z,2.60
2017-12-14T05:45:52.883Z,2.87
2017-12-14T05:48:21.291Z,2.70
2017-12-14T05:50:49.687Z,2.77
2017-12-14T05:53:18.414Z,2.67
2017-12-14T05:55:47.146Z,3.10
2017-12-14T05:58:15.496Z,3.30
2017-12-14T06:00:43.893Z,3.07
2017-12-14T06:03:13.575Z,3.10
2017-12-14T06:05:41.944Z,2.80
2017-12-14T06:08:10.664Z,3.37
2017-12-14T06:10:39.351Z,3.10
2017-12-14T06:13:07.711Z,3.53
2017-12-14T06:15:36.120Z,3.10
2017-12-14T06:18:04.535Z,3.00
2017-12-14T06:20:32.923Z,3.30
2017-12-14T06:23:01.657Z,3.33
2017-12-14T06:25:30.087Z,2.57
2017-12-14T06:27:58.488Z,2.93
2017-12-14T06:30:26.866Z,3.20
2017-12-14T06:32:55.590Z,3.20
2017-12-14T06:35:23.958Z,2.70
2017-12-14T06:37:52.349Z,2.03
2017-12-14T06:40:20.698Z,3.03
2017-12-14T06:42:49.072Z,2.57
2017-12-14T06:45:17.962Z,3.43
2017-12-14T06:47:46.402Z,3.40
2017-12-14T06:50:15.302Z,2.63
2017-12-14T06:52:43.687Z,2.50
2017-12-14T06:55:12.107Z,2.43
2017-12-14T06:57:40.795Z,2.90
2017-12-14T07:00:09.174Z,2.77
2017-12-14T07:02:37.912Z,2.77
2017-12-14T07:05:06.600Z,2.30
2017-12-14T07:07:35.319Z,2.90
2017-12-14T07:10:04.043Z,2.30
2017-12-14T07:12:32.762Z,2.83
2017-12-14T07:15:01.474Z,2.90
2017-12-14T07:17:30.176Z,2.73
2017-12-14T07:19:58.570Z,2.67
2017-12-14T07:22:27.255Z,4.03
2017-12-14T07:24:55.959Z,3.90
2017-12-14T07:27:24.327Z,3.07
2017-12-14T07:29:53.066Z,3.20
2017-12-14T07:32:21.427Z,3.17
2017-12-14T07:34:49.806Z,3.80
2017-12-14T07:37:18.552Z,2.80
2017-12-14T07:39:46.930Z,3.17
2017-12-14T07:42:26.641Z,4.33
2017-12-14T07:45:06.392Z,3.90
2017-12-14T07:47:34.794Z,3.90
2017-12-14T07:50:03.487Z,4.30
2017-12-14T07:52:32.173Z,3.80
2017-12-14T07:55:00.581Z,4.00
2017-12-14T07:57:29.303Z,3.97
2017-12-14T07:59:57.711Z,4.10
2017-12-14T08:02:26.060Z,3.93
2017-12-14T08:04:54.820Z,4.10
2017-12-14T08:07:23.525Z,4.30
2017-12-14T08:09:52.185Z,3.57
2017-12-14T08:12:20.895Z,5.27
2017-12-14T08:14:49.259Z,3.93
2017-12-14T08:17:17.991Z,4.30
2017-12-14T08:19:46.400Z,4.13
2017-12-14T08:22:14.798Z,3.80
2017-12-14T08:24:43.191Z,4.10
2017-12-14T08:27:11.582Z,4.23
2017-12-14T08:29:39.984Z,4.70
2017-12-14T08:32:08.424Z,4.07
2017-12-14T08:34:36.805Z,3.73
2017-12-14T08:37:05.764Z,3.83
2017-12-14T08:39:34.138Z,4.10
2017-12-14T08:42:02.871Z,3.87
2017-12-14T08:44:31.350Z,3.93
2017-12-14T08:47:00.112Z,4.13
2017-12-14T08:49:28.813Z,3.97
2017-12-14T08:51:57.176Z,4.00
2017-12-14T08:54:25.922Z,4.07
2017-12-14T08:56:54.293Z,4.00
2017-12-14T08:59:22.683Z,3.90
2017-12-14T09:01:51.054Z,4.77
2017-12-14T09:04:19.467Z,4.33
2017-12-14T09:06:47.847Z,4.37
2017-12-14T09:09:16.246Z,4.27
2017-12-14T09:11:44.606Z,4.13
2017-12-14T09:14:13.356Z,5.10
2017-12-14T09:16:42.051Z,5.27
2017-12-14T09:19:10.436Z,4.30
2017-12-14T09:21:39.177Z,4.93
2017-12-14T09:24:07.556Z,4.57
2017-12-14T09:26:35.964Z,4.60
2017-12-14T09:29:04.384Z,6.30
2017-12-14T09:31:33.315Z,5.93
2017-12-14T09:34:01.671Z,5.07
2017-12-14T09:36:30.068Z,5.23
2017-12-14T09:38:58.767Z,5.33
2017-12-14T09:41:27.158Z,5.67
2017-12-14T09:43:55.831Z,6.03
2017-12-14T09:46:24.589Z,6.33
2017-12-14T09:48:53.238Z,5.70
2017-12-14T09:51:21.604Z,6.33
2017-12-14T09:53:50.387Z,6.77
2017-12-14T09:56:19.070Z,6.80
2017-12-14T09:58:47.476Z,5.57
2017-12-14T10:01:16.176Z,6.13
2017-12-14T10:03:44.899Z,5.90
2017-12-14T10:06:13.158Z,5.90
2017-12-14T10:08:41.670Z,6.53
2017-12-14T10:11:10.451Z,5.40
2017-12-14T10:13:39.174Z,5.80
2017-12-14T10:16:10.992Z,6.00
2017-12-14T10:18:39.687Z,9.17
2017-12-14T10:21:08.062Z,9.60
2017-12-14T10:23:36.474Z,10.93
2017-12-14T10:26:05.559Z,14.40
2017-12-14T10:28:34.089Z,11.87
2017-12-14T10:31:02.540Z,12.77
2017-12-14T10:33:31.292Z,10.87
2017-12-14T10:35:59.672Z,9.43
2017-12-14T10:38:28.035Z,9.17
2017-12-14T10:40:56.777Z,8.17
2017-12-14T10:43:25.470Z,8.40
2017-12-14T10:45:53.855Z,8.70
2017-12-14T10:48:22.259Z,8.80
2017-12-14T10:50:50.682Z,9.63
2017-12-14T10:53:19.403Z,7.83
2017-12-14T10:55:47.789Z,9.53
2017-12-14T10:58:16.190Z,8.70
2017-12-14T11:00:50.170Z,7.87
2017-12-14T11:03:18.575Z,7.50
2017-12-14T11:05:47.261Z,7.57
2017-12-14T11:08:15.954Z,6.00
2017-12-14T11:10:44.358Z,6.20
2017-12-14T11:13:13.035Z,5.93
2017-12-14T11:15:41.419Z,5.43
2017-12-14T11:18:09.799Z,5.53
2017-12-14T11:20:38.534Z,5.43
2017-12-14T11:23:07.270Z,5.77
2017-12-14T11:25:35.666Z,5.40
2017-12-14T11:28:04.451Z,4.13
2017-12-14T11:30:32.825Z,3.60
2017-12-14T11:33:01.518Z,3.00
2017-12-14T11:35:30.185Z,3.17
2017-12-14T11:37:58.530Z,3.60
2017-12-14T11:40:26.935Z,4.07
2017-12-14T11:42:55.304Z,3.20
2017-12-14T11:45:23.889Z,2.93
2017-12-14T11:47:52.240Z,3.57
2017-12-14T11:50:20.977Z,3.10
2017-12-14T11:52:49.368Z,2.67
2017-12-14T11:55:19.550Z,2.53
2017-12-14T11:57:47.962Z,2.70
2017-12-14T12:00:26.442Z,3.27
2017-12-14T12:02:55.165Z,3.73
2017-12-14T12:05:23.553Z,3.43
2017-12-14T12:07:51.956Z,2.77
2017-12-14T12:10:20.397Z,3.00
2017-12-14T12:12:48.772Z,2.60
2017-12-14T12:15:17.182Z,2.90
2017-12-14T12:17:45.546Z,2.93
2017-12-14T12:20:13.914Z,3.13
2017-12-14T12:22:42.611Z,3.07
2017-12-14T12:25:11.344Z,3.23
2017-12-14T12:27:39.751Z,3.53
2017-12-14T12:30:08.224Z,2.80
2017-12-14T12:32:36.616Z,3.00
2017-12-14T12:35:04.971Z,3.50
2017-12-14T12:37:33.379Z,3.30
2017-12-14T12:40:02.075Z,3.90
2017-12-14T12:42:30.782Z,3.63
2017-12-14T12:44:59.209Z,3.23
2017-12-14T12:47:27.591Z,3.67
2017-12-14T12:49:56.006Z,3.13
2017-12-14T12:52:24.710Z,3.00
2017-12-14T12:54:53.109Z,3.40
2017-12-14T12:57:21.800Z,3.03
2017-12-14T12:59:50.217Z,4.07
2017-12-14T13:02:18.898Z,4.23
2017-12-14T13:04:47.551Z,4.17
2017-12-14T13:07:16.292Z,3.83
2017-12-14T13:09:44.999Z,3.20
2017-12-14T13:12:13.744Z,3.73
2017-12-14T13:14:42.095Z,4.30
2017-12-14T13:17:10.526Z,3.20
2017-12-14T13:19:38.882Z,4.30
2017-12-14T13:22:07.288Z,4.03
2017-12-14T13:24:35.952Z,3.70
2017-12-14T13:27:04.646Z,3.77
2017-12-14T13:29:33.051Z,3.97
2017-12-14T13:32:01.424Z,3.90
2017-12-14T13:34:30.166Z,4.17
2017-12-14T13:36:58.870Z,4.40
2017-12-14T13:39:27.555Z,3.40
2017-12-14T13:41:57.475Z,4.40
2017-12-14T13:44:26.597Z,3.80
2017-12-14T13:46:55.313Z,4.53
2017-12-14T13:49:23.995Z,3.37
2017-12-14T13:51:52.726Z,3.77
2017-12-14T13:54:21.424Z,4.40
2017-12-14T13:56:49.844Z,4.47
2017-12-14T13:59:18.521Z,4.37
2017-12-14T14:01:46.979Z,4.57
2017-12-14T14:04:15.586Z,3.53
2017-12-14T14:06:44.280Z,4.53
2017-12-14T14:09:12.967Z,4.10
2017-12-14T14:11:41.614Z,3.67
2017-12-14T14:14:10.382Z,3.80
2017-12-14T14:16:39.056Z,4.37
2017-12-14T14:19:07.775Z,3.77
2017-12-14T14:21:36.425Z,4.07
2017-12-14T14:24:05.155Z,4.37
2017-12-14T14:26:33.851Z,5.40
2017-12-14T14:29:02.574Z,4.70
2017-12-14T14:31:30.986Z,4.20
2017-12-14T14:33:59.675Z,4.97
2017-12-14T14:36:28.427Z,5.17
2017-12-14T14:38:57.111Z,5.87
2017-12-14T14:41:25.837Z,3.87
2017-12-14T14:43:54.488Z,4.70
2017-12-14T14:46:23.225Z,4.40
2017-12-14T14:48:51.659Z,4.60
2017-12-14T14:51:20.350Z,4.33
2017-12-14T14:53:49.071Z,3.97
2017-12-14T14:56:17.756Z,4.53
2017-12-14T14:58:46.448Z,5.43
2017-12-14T15:01:15.337Z,6.00
2017-12-14T15:03:44.045Z,6.70
2017-12-14T15:06:12.759Z,7.20
2017-12-14T15:08:41.428Z,6.60
2017-12-14T15:11:10.091Z,8.37
2017-12-14T15:13:38.791Z,6.97
2017-12-14T15:16:08.156Z,6.57
2017-12-14T15:18:36.868Z,7.27
2017-12-14T15:21:05.576Z,6.83
2017-12-14T15:23:34.274Z,6.40
2017-12-14T15:26:02.952Z,6.90
2017-12-14T15:28:31.603Z,6.00
2017-12-14T15:31:00.293Z,5.67
2017-12-14T15:33:29.004Z,5.40
2017-12-14T15:35:57.695Z,5.83
2017-12-14T15:38:26.339Z,5.47
2017-12-14T15:40:55.018Z,5.03
2017-12-14T15:43:23.712Z,5.30
2017-12-14T15:45:52.613Z,5.10
2017-12-14T15:48:21.337Z,4.20
2017-12-14T15:50:50.016Z,4.40
2017-12-14T15:53:18.722Z,4.77
2017-12-14T15:55:47.379Z,3.80
2017-12-14T15:58:16.026Z,4.27
2017-12-14T16:00:44.445Z,3.57
2017-12-14T16:03:13.108Z,4.47
2017-12-14T16:05:41.806Z,3.70
2017-12-14T16:08:10.451Z,3.70
2017-12-14T16:10:39.122Z,3.57
2017-12-14T16:13:07.851Z,3.57
2017-12-14T16:15:36.509Z,4.27
2017-12-14T16:18:04.899Z,3.80
2017-12-14T16:20:33.583Z,4.30
2017-12-14T16:23:06.347Z,4.80
2017-12-14T16:25:34.974Z,4.20
2017-12-14T16:28:03.619Z,4.87
2017-12-14T16:36:15.259Z,4.10
2017-12-14T16:41:42.231Z,3.87
2017-12-14T16:44:20.391Z,4.00
2017-12-14T16:47:01.943Z,4.67
2017-12-14T16:49:50.309Z,6.43
2017-12-14T16:52:32.927Z,6.70
2017-12-14T16:55:15.393Z,8.60
2017-12-14T16:57:55.489Z,7.13
2017-12-14T17:00:37.228Z,7.93
2017-12-14T17:03:15.461Z,9.30
2017-12-14T17:05:51.220Z,7.83
2017-12-14T17:08:28.196Z,7.37
2017-12-14T17:13:51.301Z,7.90
2017-12-14T17:17:00.331Z,6.83
2017-12-14T17:22:33.353Z,6.53
2017-12-14T17:25:11.893Z,6.87
2017-12-14T17:27:47.444Z,6.23
2017-12-14T17:30:35.160Z,5.93
2017-12-14T17:33:10.255Z,6.23
2017-12-14T17:38:37.574Z,5.73
2017-12-14T17:41:15.313Z,6.67
2017-12-14T17:46:52.213Z,6.80
2017-12-14T17:49:36.018Z,6.77
2017-12-14T17:52:15.586Z,6.03
2017-12-14T17:55:03.536Z,6.80
2017-12-14T17:57:47.223Z,5.87
2017-12-14T18:00:29.321Z,6.40
2017-12-14T18:03:13.021Z,6.23
2017-12-14T18:06:02.685Z,6.00
2017-12-14T18:08:43.532Z,6.70
2017-12-14T18:11:20.769Z,6.50
2017-12-14T18:14:02.364Z,7.27
2017-12-14T18:16:50.260Z,7.33
2017-12-14T18:19:28.749Z,6.77
2017-12-14T18:22:11.876Z,7.90
2017-12-14T18:24:56.448Z,8.17
2017-12-14T18:27:36.315Z,6.83
2017-12-14T18:30:15.645Z,6.97
2017-12-14T18:33:01.536Z,7.53
2017-12-14T18:35:46.153Z,7.30
2017-12-14T18:38:20.407Z,7.80
2017-12-14T18:40:56.741Z,8.00
2017-12-14T18:43:34.230Z,9.13
2017-12-14T18:46:10.745Z,9.17
2017-12-14T18:48:44.237Z,9.80
2017-12-14T18:51:16.940Z,10.30
2017-12-14T18:53:47.018Z,9.73
2017-12-14T18:56:18.536Z,8.90
2017-12-14T18:58:48.095Z,8.43
2017-12-14T19:01:29.779Z,10.77
2017-12-14T19:16:22.802Z,9.73
2017-12-14T19:18:55.296Z,10.27
2017-12-14T19:21:28.272Z,10.50
2017-12-14T19:24:11.639Z,9.87
2017-12-14T19:26:49.753Z,11.17
2017-12-14T19:29:29.673Z,9.57
2017-12-14T19:32:04.369Z,9.20
2017-12-14T19:34:37.985Z,9.33
2017-12-14T19:37:18.787Z,9.47
2017-12-14T19:39:55.816Z,10.03
2017-12-14T19:42:32.434Z,9.90
2017-12-14T19:45:08.931Z,9.10
2017-12-14T19:47:42.340Z,10.43
2017-12-14T19:50:16.814Z,9.20
2017-12-14T19:52:51.092Z,8.57
2017-12-14T19:55:36.876Z,9.67
2017-12-14T19:58:27.719Z,8.90
2017-12-14T20:01:15.584Z,9.20
2017-12-14T20:03:58.424Z,9.20
2017-12-14T20:09:32.493Z,8.80
2017-12-14T20:12:13.055Z,8.90
2017-12-14T20:14:47.032Z,8.50
2017-12-14T20:17:18.909Z,10.03
2017-12-14T20:19:56.929Z,8.47
2017-12-14T20:22:30.842Z,8.60
2017-12-14T20:25:04.085Z,8.37
2017-12-14T20:27:43.020Z,8.43
2017-12-14T20:30:19.390Z,8.23
2017-12-14T20:32:51.278Z,7.97
2017-12-14T20:35:26.914Z,7.60
2017-12-14T20:38:00.922Z,8.43
2017-12-14T20:40:32.198Z,9.40
2017-12-14T20:43:03.925Z,8.73
2017-12-14T20:45:33.483Z,7.80
2017-12-14T20:48:09.382Z,9.90
2017-12-14T20:50:39.191Z,9.60
2017-12-14T20:53:08.620Z,8.83
2017-12-14T20:55:42.564Z,8.73
2017-12-14T20:58:12.704Z,9.13
2017-12-14T21:00:44.506Z,10.00
2017-12-14T21:03:23.037Z,9.70
2017-12-14T21:05:51.986Z,9.37
2017-12-14T21:08:21.341Z,9.77
2017-12-14T21:10:54.430Z,8.40
2017-12-14T21:13:24.954Z,10.20
2017-12-14T21:15:56.623Z,8.53
2017-12-14T21:18:27.277Z,9.23
2017-12-14T21:21:03.451Z,8.53
2017-12-14T21:23:46.577Z,8.27
2017-12-14T21:26:18.635Z,8.30
2017-12-14T21:28:47.363Z,8.27
2017-12-14T21:31:16.017Z,9.83
2017-12-14T21:33:44.669Z,8.93
2017-12-14T21:36:13.412Z,8.77
2017-12-14T21:38:42.080Z,8.77
2017-12-14T21:41:10.807Z,8.00
2017-12-14T21:43:39.470Z,9.00
2017-12-14T21:46:10.084Z,10.00
2017-12-14T21:48:38.855Z,9.10
2017-12-14T21:51:07.215Z,8.53
2017-12-14T21:53:35.888Z,8.10
2017-12-14T21:56:08.640Z,8.73
2017-12-14T21:58:37.011Z,8.97
2017-12-14T22:01:05.729Z,9.00
2017-12-14T22:03:34.390Z,10.67
2017-12-14T22:06:03.091Z,9.50
2017-12-14T22:08:31.751Z,9.97
2017-12-14T22:11:00.482Z,10.03
2017-12-14T22:13:29.156Z,9.90
2017-12-14T22:15:57.858Z,10.90
2017-12-14T22:18:26.591Z,9.50
2017-12-14T22:20:55.275Z,10.60
2017-12-14T22:23:23.967Z,11.93
2017-12-14T22:25:52.632Z,11.47
2017-12-14T22:28:21.317Z,11.30
2017-12-14T22:30:50.066Z,11.93
2017-12-14T22:33:21.879Z,11.33
2017-12-14T22:35:50.593Z,11.90
2017-12-14T22:38:19.268Z,12.57
2017-12-14T22:40:48.002Z,12.30
2017-12-14T22:43:16.704Z,12.97
2017-12-14T22:45:50.723Z,13.60
2017-12-14T22:48:22.729Z,13.10
2017-12-14T22:50:54.056Z,12.47
2017-12-14T22:53:22.944Z,12.40
2017-12-14T22:55:51.636Z,13.67
2017-12-14T22:58:20.332Z,12.40
2017-12-14T23:00:49.251Z,13.80
2017-12-14T23:03:17.937Z,11.87
2017-12-14T23:05:46.651Z,11.80
2017-12-14T23:08:15.314Z,11.93
2017-12-14T23:10:43.716Z,12.83
2017-12-14T23:13:12.407Z,14.03
2017-12-14T23:15:40.750Z,12.83
2017-12-14T23:18:09.502Z,13.17
2017-12-14T23:20:38.157Z,12.50
2017-12-14T23:23:06.826Z,13.00
2017-12-14T23:25:35.550Z,12.60
2017-12-14T23:28:04.249Z,12.30
2017-12-14T23:30:32.946Z,13.10
2017-12-14T23:33:01.603Z,12.53
2017-12-14T23:35:30.298Z,11.30
2017-12-14T23:37:59.015Z,12.13
2017-12-14T23:40:27.668Z,12.20
2017-12-14T23:42:56.392Z,12.10
2017-12-14T23:45:25.114Z,11.67
2017-12-14T23:47:53.789Z,13.30
2017-12-14T23:50:22.450Z,13.00
2017-12-14T23:52:51.160Z,11.60
2017-12-14T23:55:19.863Z,13.97
2017-12-14T23:57:48.571Z,12.50
